CES501 ZBAA-ZYHB
Flight info
| Callsign | CES501 |
|---|---|
| Flight time | 2h 6m |
| Altitude | 33100 |
| Route | DOTRA5Y DOTRA B334 TGO G212 RUSBO W203 PIGAM PIG07A |
| Aircraft | A320/M-SDE3FGHIRWY/LB1 |
Departure
| Time | 2026-04-26 06:07 |
|---|---|
| Airport | Beijing Capital International Airport (ZBAA) |
Arrival
| Time | 2026-04-26 08:14 |
|---|---|
| Airport | Harbin Taiping International Airport (ZYHB) |
| Time | Latitude | Longitude | Altitude | Speed | Heading |
|---|---|---|---|---|---|
| 2026-04-26 05:29 | 40.05945 | 116.60684 | 127 ft | 0 kts | 83° |
| 2026-04-26 05:48 | 40.05943 | 116.60667 | 123 ft | 4 kts | 83° |
| 2026-04-26 05:49 | 40.05939 | 116.60632 | 121 ft | 4 kts | 79° |
| 2026-04-26 05:49 | 40.05919 | 116.60575 | 118 ft | 4 kts | 6° |
| 2026-04-26 05:49 | 40.05914 | 116.60574 | 118 ft | 0 kts | 352° |
| 2026-04-26 05:55 | 40.05917 | 116.60574 | 123 ft | 1 kts | 352° |
| 2026-04-26 05:55 | 40.05933 | 116.60570 | 120 ft | 4 kts | 351° |
| 2026-04-26 05:55 | 40.05983 | 116.60562 | 123 ft | 10 kts | 353° |
| 2026-04-26 05:56 | 40.06058 | 116.60550 | 121 ft | 11 kts | 353° |
| 2026-04-26 05:56 | 40.06119 | 116.60541 | 122 ft | 9 kts | 353° |
| 2026-04-26 05:56 | 40.06174 | 116.60530 | 122 ft | 8 kts | 344° |
| 2026-04-26 05:56 | 40.06198 | 116.60468 | 122 ft | 9 kts | 268° |
| 2026-04-26 05:57 | 40.06191 | 116.60380 | 122 ft | 10 kts | 263° |
| 2026-04-26 05:57 | 40.06182 | 116.60285 | 124 ft | 10 kts | 263° |
| 2026-04-26 05:57 | 40.06175 | 116.60190 | 124 ft | 9 kts | 274° |
| 2026-04-26 05:57 | 40.06212 | 116.60146 | 120 ft | 6 kts | 344° |
| 2026-04-26 05:58 | 40.06250 | 116.60139 | 123 ft | 6 kts | 351° |
| 2026-04-26 05:58 | 40.06297 | 116.60132 | 122 ft | 8 kts | 354° |
| 2026-04-26 05:58 | 40.06355 | 116.60124 | 121 ft | 9 kts | 352° |
| 2026-04-26 05:58 | 40.06421 | 116.60113 | 123 ft | 9 kts | 353° |
| 2026-04-26 05:59 | 40.06481 | 116.60103 | 121 ft | 8 kts | 353° |
| 2026-04-26 05:59 | 40.06533 | 116.60095 | 120 ft | 7 kts | 353° |
| 2026-04-26 05:59 | 40.06588 | 116.60088 | 122 ft | 9 kts | 353° |
| 2026-04-26 05:59 | 40.06653 | 116.60077 | 122 ft | 10 kts | 353° |
| 2026-04-26 06:00 | 40.06730 | 116.60065 | 120 ft | 12 kts | 353° |
| 2026-04-26 06:00 | 40.06818 | 116.60051 | 122 ft | 14 kts | 353° |
| 2026-04-26 06:00 | 40.06917 | 116.60035 | 121 ft | 15 kts | 353° |
| 2026-04-26 06:00 | 40.07026 | 116.60018 | 120 ft | 17 kts | 353° |
| 2026-04-26 06:01 | 40.07145 | 116.60000 | 120 ft | 17 kts | 353° |
| 2026-04-26 06:01 | 40.07253 | 116.59983 | 123 ft | 13 kts | 354° |
| 2026-04-26 06:01 | 40.07342 | 116.59968 | 121 ft | 13 kts | 353° |
| 2026-04-26 06:01 | 40.07435 | 116.59954 | 120 ft | 14 kts | 353° |
| 2026-04-26 06:02 | 40.07539 | 116.59938 | 124 ft | 16 kts | 353° |
| 2026-04-26 06:02 | 40.07654 | 116.59920 | 122 ft | 17 kts | 353° |
| 2026-04-26 06:02 | 40.07780 | 116.59900 | 121 ft | 19 kts | 353° |
| 2026-04-26 06:02 | 40.07902 | 116.59881 | 123 ft | 16 kts | 353° |
| 2026-04-26 06:03 | 40.08021 | 116.59863 | 123 ft | 18 kts | 353° |
| 2026-04-26 06:03 | 40.08138 | 116.59844 | 122 ft | 16 kts | 353° |
| 2026-04-26 06:03 | 40.08255 | 116.59826 | 124 ft | 18 kts | 353° |
| 2026-04-26 06:03 | 40.08382 | 116.59806 | 123 ft | 19 kts | 353° |
| 2026-04-26 06:04 | 40.08519 | 116.59785 | 122 ft | 19 kts | 353° |
| 2026-04-26 06:04 | 40.08650 | 116.59763 | 122 ft | 18 kts | 353° |
| 2026-04-26 06:04 | 40.08770 | 116.59745 | 122 ft | 15 kts | 353° |
| 2026-04-26 06:04 | 40.08861 | 116.59730 | 122 ft | 9 kts | 347° |
| 2026-04-26 06:05 | 40.08888 | 116.59663 | 122 ft | 10 kts | 268° |
| 2026-04-26 06:05 | 40.08880 | 116.59567 | 124 ft | 12 kts | 263° |
| 2026-04-26 06:05 | 40.08856 | 116.59499 | 119 ft | 8 kts | 195° |
| 2026-04-26 06:05 | 40.08833 | 116.59502 | 123 ft | 0 kts | 173° |
| 2026-04-26 06:06 | 40.08829 | 116.59502 | 124 ft | 6 kts | 173° |
| 2026-04-26 06:06 | 40.08561 | 116.59545 | 124 ft | 73 kts | 173° |
| 2026-04-26 06:07 | 40.07866 | 116.59654 | 124 ft | 126 kts | 173° |
| 2026-04-26 06:07 | 40.06838 | 116.59819 | 138 ft | 168 kts | 171° |
| 2026-04-26 06:07 | 40.05666 | 116.60010 | 607 ft | 172 kts | 171° |
| 2026-04-26 06:07 | 40.04465 | 116.60195 | 1132 ft | 175 kts | 171° |
| 2026-04-26 06:08 | 40.03252 | 116.60374 | 1743 ft | 175 kts | 171° |
| 2026-04-26 06:08 | 40.02026 | 116.60554 | 2238 ft | 178 kts | 172° |
| 2026-04-26 06:08 | 40.00788 | 116.60732 | 2808 ft | 179 kts | 171° |
| 2026-04-26 06:08 | 39.99539 | 116.60924 | 3324 ft | 183 kts | 172° |
| 2026-04-26 06:09 | 39.98200 | 116.61144 | 3625 ft | 206 kts | 171° |
| 2026-04-26 06:09 | 39.96707 | 116.61390 | 3930 ft | 227 kts | 172° |
| 2026-04-26 06:09 | 39.95075 | 116.61655 | 4348 ft | 242 kts | 172° |
| 2026-04-26 06:09 | 39.93376 | 116.61926 | 4874 ft | 252 kts | 171° |
| 2026-04-26 06:10 | 39.91555 | 116.62212 | 4973 ft | 270 kts | 172° |
| 2026-04-26 06:10 | 39.89676 | 116.62501 | 4981 ft | 273 kts | 173° |
| 2026-04-26 06:10 | 39.87785 | 116.62796 | 4983 ft | 273 kts | 169° |
| 2026-04-26 06:10 | 39.86032 | 116.63651 | 4986 ft | 270 kts | 143° |
| 2026-04-26 06:11 | 39.84785 | 116.65425 | 4988 ft | 267 kts | 116° |
| 2026-04-26 06:11 | 39.84308 | 116.67717 | 5054 ft | 267 kts | 88° |
| 2026-04-26 06:11 | 39.84542 | 116.70095 | 5848 ft | 269 kts | 78° |
| 2026-04-26 06:11 | 39.84826 | 116.72511 | 6711 ft | 271 kts | 79° |
| 2026-04-26 06:12 | 39.85096 | 116.74963 | 7459 ft | 277 kts | 79° |
| 2026-04-26 06:12 | 39.85368 | 116.77484 | 7785 ft | 283 kts | 80° |
| 2026-04-26 06:12 | 39.85642 | 116.80028 | 7859 ft | 284 kts | 79° |
| 2026-04-26 06:12 | 39.85918 | 116.82571 | 7868 ft | 284 kts | 79° |
| 2026-04-26 06:13 | 39.86195 | 116.85119 | 7873 ft | 284 kts | 80° |
| 2026-04-26 06:13 | 39.86472 | 116.87666 | 7867 ft | 284 kts | 79° |
| 2026-04-26 06:13 | 39.86751 | 116.90214 | 7863 ft | 285 kts | 79° |
| 2026-04-26 06:13 | 39.87034 | 116.92766 | 7869 ft | 285 kts | 78° |
| 2026-04-26 06:14 | 39.87318 | 116.95316 | 7876 ft | 285 kts | 78° |
| 2026-04-26 06:14 | 39.87602 | 116.97889 | 8276 ft | 288 kts | 79° |
| 2026-04-26 06:14 | 39.87889 | 117.00497 | 9029 ft | 293 kts | 79° |
| 2026-04-26 06:14 | 39.88183 | 117.03155 | 9716 ft | 300 kts | 79° |
| 2026-04-26 06:15 | 39.88582 | 117.05837 | 10351 ft | 303 kts | 67° |
| 2026-04-26 06:15 | 39.89658 | 117.08188 | 10820 ft | 309 kts | 43° |
| 2026-04-26 06:15 | 39.91434 | 117.09767 | 10982 ft | 323 kts | 17° |
| 2026-04-26 06:15 | 39.93683 | 117.10201 | 11115 ft | 336 kts | 353° |
| 2026-04-26 06:16 | 39.96046 | 117.09817 | 11509 ft | 346 kts | 349° |
| 2026-04-26 06:16 | 39.98449 | 117.09391 | 12134 ft | 350 kts | 349° |
| 2026-04-26 06:16 | 40.00877 | 117.08960 | 12598 ft | 354 kts | 349° |
| 2026-04-26 06:16 | 40.03319 | 117.08532 | 12711 ft | 354 kts | 349° |
| 2026-04-26 06:17 | 40.05772 | 117.08090 | 13103 ft | 357 kts | 349° |
| 2026-04-26 06:17 | 40.08236 | 117.07635 | 13798 ft | 359 kts | 349° |
| 2026-04-26 06:17 | 40.10721 | 117.07173 | 14393 ft | 361 kts | 349° |
| 2026-04-26 06:17 | 40.13217 | 117.06708 | 14982 ft | 363 kts | 348° |
| 2026-04-26 06:18 | 40.15727 | 117.06242 | 15562 ft | 365 kts | 348° |
| 2026-04-26 06:18 | 40.18249 | 117.05775 | 16132 ft | 367 kts | 348° |
| 2026-04-26 06:18 | 40.20788 | 117.05304 | 16710 ft | 370 kts | 348° |
| 2026-04-26 06:18 | 40.23341 | 117.04830 | 17305 ft | 372 kts | 348° |
| 2026-04-26 06:19 | 40.25913 | 117.04354 | 17913 ft | 374 kts | 348° |
| 2026-04-26 06:19 | 40.28500 | 117.03875 | 18477 ft | 377 kts | 348° |
| 2026-04-26 06:19 | 40.31106 | 117.03392 | 19018 ft | 379 kts | 348° |
| 2026-04-26 06:19 | 40.33730 | 117.02907 | 19565 ft | 382 kts | 348° |
| 2026-04-26 06:20 | 40.36384 | 117.02491 | 20119 ft | 386 kts | 350° |
| 2026-04-26 06:20 | 40.39032 | 117.02163 | 20622 ft | 389 kts | 351° |
| 2026-04-26 06:20 | 40.41741 | 117.01877 | 21123 ft | 391 kts | 352° |
| 2026-04-26 06:20 | 40.44402 | 117.01617 | 22072 ft | 382 kts | 352° |
| 2026-04-26 06:21 | 40.47097 | 117.01344 | 22201 ft | 394 kts | 351° |
| 2026-04-26 06:21 | 40.49848 | 117.01040 | 22537 ft | 398 kts | 350° |
| 2026-04-26 06:21 | 40.52566 | 117.00355 | 22944 ft | 397 kts | 340° |
| 2026-04-26 06:21 | 40.55129 | 116.99044 | 23389 ft | 395 kts | 330° |
| 2026-04-26 06:22 | 40.57466 | 116.97171 | 23822 ft | 392 kts | 322° |
| 2026-04-26 06:22 | 40.59700 | 116.95087 | 24192 ft | 394 kts | 322° |
| 2026-04-26 06:22 | 40.61943 | 116.93001 | 24545 ft | 396 kts | 322° |
| 2026-04-26 06:22 | 40.64196 | 116.90910 | 24888 ft | 397 kts | 322° |
| 2026-04-26 06:23 | 40.66459 | 116.88813 | 25242 ft | 399 kts | 321° |
| 2026-04-26 06:23 | 40.68736 | 116.86703 | 25606 ft | 400 kts | 321° |
| 2026-04-26 06:23 | 40.71015 | 116.84586 | 25977 ft | 401 kts | 321° |
| 2026-04-26 06:23 | 40.73389 | 116.82625 | 26323 ft | 407 kts | 329° |
| 2026-04-26 06:24 | 40.76040 | 116.81233 | 26661 ft | 414 kts | 339° |
| 2026-04-26 06:24 | 40.78899 | 116.80509 | 26981 ft | 424 kts | 349° |
| 2026-04-26 06:24 | 40.80869 | 116.80440 | 27211 ft | 430 kts | 356° |
| 2026-04-26 06:24 | 40.84881 | 116.80658 | 27650 ft | 432 kts | 356° |
| 2026-04-26 06:25 | 40.87883 | 116.80822 | 28089 ft | 431 kts | 356° |
| 2026-04-26 06:25 | 40.90880 | 116.80983 | 28548 ft | 431 kts | 356° |
| 2026-04-26 06:25 | 40.92863 | 116.81088 | 28840 ft | 431 kts | 355° |
| 2026-04-26 06:25 | 40.96861 | 116.81295 | 29473 ft | 429 kts | 355° |
| 2026-04-26 06:26 | 40.98834 | 116.81395 | 29815 ft | 428 kts | 355° |
| 2026-04-26 06:26 | 41.01803 | 116.81547 | 30286 ft | 426 kts | 355° |
| 2026-04-26 06:26 | 41.04759 | 116.81703 | 30703 ft | 424 kts | 354° |
| 2026-04-26 06:26 | 41.07707 | 116.81859 | 31102 ft | 423 kts | 354° |
| 2026-04-26 06:27 | 41.10652 | 116.82017 | 31518 ft | 423 kts | 354° |
| 2026-04-26 06:27 | 41.13585 | 116.82174 | 31932 ft | 421 kts | 354° |
| 2026-04-26 06:27 | 41.16511 | 116.82327 | 32314 ft | 420 kts | 354° |
| 2026-04-26 06:27 | 41.19432 | 116.82478 | 32705 ft | 419 kts | 354° |
| 2026-04-26 06:28 | 41.22350 | 116.82630 | 32977 ft | 419 kts | 354° |
| 2026-04-26 06:28 | 41.28215 | 116.82929 | 33020 ft | 429 kts | 354° |
| 2026-04-26 06:29 | 41.34212 | 116.83236 | 33015 ft | 431 kts | 354° |
| 2026-04-26 06:29 | 41.40218 | 116.83560 | 33021 ft | 432 kts | 354° |
| 2026-04-26 06:30 | 41.46236 | 116.83884 | 33029 ft | 432 kts | 354° |
| 2026-04-26 06:30 | 41.52256 | 116.84198 | 33028 ft | 433 kts | 354° |
| 2026-04-26 06:31 | 41.58270 | 116.84518 | 33060 ft | 432 kts | 354° |
| 2026-04-26 06:31 | 41.64294 | 116.85097 | 33045 ft | 443 kts | 4° |
| 2026-04-26 06:31 | 41.67260 | 116.86401 | 33041 ft | 457 kts | 17° |
| 2026-04-26 06:32 | 41.70014 | 116.88643 | 33027 ft | 471 kts | 32° |
| 2026-04-26 06:32 | 41.72363 | 116.91779 | 33030 ft | 485 kts | 47° |
| 2026-04-26 06:32 | 41.74133 | 116.95671 | 33031 ft | 495 kts | 59° |
| 2026-04-26 06:33 | 41.77025 | 117.04014 | 33016 ft | 498 kts | 60° |
| 2026-04-26 06:33 | 41.79943 | 117.12430 | 33010 ft | 499 kts | 60° |
| 2026-04-26 06:34 | 41.82867 | 117.20878 | 33010 ft | 500 kts | 60° |
| 2026-04-26 06:34 | 41.85786 | 117.29356 | 33015 ft | 500 kts | 60° |
| 2026-04-26 06:35 | 41.88700 | 117.37824 | 33007 ft | 500 kts | 60° |
| 2026-04-26 06:35 | 41.91617 | 117.46316 | 33001 ft | 501 kts | 60° |
| 2026-04-26 06:36 | 41.94526 | 117.54813 | 33044 ft | 501 kts | 60° |
| 2026-04-26 06:36 | 41.97423 | 117.63318 | 33025 ft | 501 kts | 60° |
| 2026-04-26 06:37 | 42.00313 | 117.71858 | 33022 ft | 502 kts | 61° |
| 2026-04-26 06:37 | 42.03198 | 117.80401 | 33027 ft | 502 kts | 60° |
| 2026-04-26 06:38 | 42.06091 | 117.88943 | 33058 ft | 502 kts | 60° |
| 2026-04-26 06:38 | 42.08985 | 117.97502 | 33045 ft | 502 kts | 60° |
| 2026-04-26 06:39 | 42.11847 | 118.06019 | 33036 ft | 502 kts | 61° |
| 2026-04-26 06:39 | 42.14711 | 118.14608 | 33041 ft | 502 kts | 61° |
| 2026-04-26 06:40 | 42.17570 | 118.23216 | 33050 ft | 502 kts | 61° |
| 2026-04-26 06:40 | 42.20490 | 118.31760 | 33046 ft | 500 kts | 59° |
| 2026-04-26 06:41 | 42.23598 | 118.40159 | 33047 ft | 500 kts | 58° |
| 2026-04-26 06:41 | 42.26723 | 118.48540 | 33052 ft | 500 kts | 58° |
| 2026-04-26 06:42 | 42.29766 | 118.56921 | 33058 ft | 499 kts | 59° |
| 2026-04-26 06:42 | 42.32785 | 118.65370 | 33054 ft | 499 kts | 59° |
| 2026-04-26 06:43 | 42.35810 | 118.73835 | 33057 ft | 499 kts | 59° |
| 2026-04-26 06:43 | 42.38829 | 118.82283 | 33098 ft | 499 kts | 59° |
| 2026-04-26 06:44 | 42.41854 | 118.90749 | 33081 ft | 499 kts | 59° |
| 2026-04-26 06:44 | 42.44873 | 118.99223 | 33069 ft | 499 kts | 59° |
| 2026-04-26 06:45 | 42.47886 | 119.07695 | 33071 ft | 499 kts | 59° |
| 2026-04-26 06:45 | 42.50886 | 119.16185 | 33099 ft | 499 kts | 59° |
| 2026-04-26 06:46 | 42.53861 | 119.24617 | 33087 ft | 499 kts | 59° |
| 2026-04-26 06:46 | 42.56852 | 119.33119 | 33082 ft | 499 kts | 59° |
| 2026-04-26 06:47 | 42.59838 | 119.41644 | 33059 ft | 500 kts | 59° |
| 2026-04-26 06:47 | 42.62823 | 119.50180 | 33091 ft | 500 kts | 60° |
| 2026-04-26 06:48 | 42.65799 | 119.58736 | 33085 ft | 500 kts | 60° |
| 2026-04-26 06:48 | 42.68766 | 119.67282 | 33079 ft | 500 kts | 60° |
| 2026-04-26 06:49 | 42.71729 | 119.75845 | 33080 ft | 500 kts | 60° |
| 2026-04-26 06:49 | 42.74693 | 119.84406 | 33105 ft | 500 kts | 60° |
| 2026-04-26 06:50 | 42.77636 | 119.92963 | 33092 ft | 499 kts | 60° |
| 2026-04-26 06:50 | 42.80571 | 120.01534 | 33086 ft | 499 kts | 60° |
| 2026-04-26 06:51 | 42.83477 | 120.10046 | 33098 ft | 499 kts | 60° |
| 2026-04-26 06:51 | 42.87855 | 120.22909 | 33087 ft | 498 kts | 60° |
| 2026-04-26 06:52 | 42.90766 | 120.31482 | 33085 ft | 498 kts | 60° |
| 2026-04-26 06:52 | 42.93666 | 120.40060 | 33091 ft | 498 kts | 60° |
| 2026-04-26 06:53 | 42.96563 | 120.48647 | 33087 ft | 498 kts | 60° |
| 2026-04-26 06:53 | 42.99527 | 120.57182 | 33089 ft | 496 kts | 59° |
| 2026-04-26 06:54 | 43.02598 | 120.65627 | 33085 ft | 496 kts | 58° |
| 2026-04-26 06:54 | 43.05649 | 120.74085 | 33103 ft | 496 kts | 59° |
| 2026-04-26 06:55 | 43.08656 | 120.82579 | 33103 ft | 495 kts | 59° |
| 2026-04-26 06:55 | 43.11643 | 120.91060 | 33098 ft | 494 kts | 59° |
| 2026-04-26 06:56 | 43.14624 | 120.99525 | 33096 ft | 493 kts | 59° |
| 2026-04-26 06:56 | 43.17606 | 121.07981 | 33114 ft | 492 kts | 59° |
| 2026-04-26 06:57 | 43.20577 | 121.16424 | 33099 ft | 491 kts | 59° |
| 2026-04-26 06:57 | 43.23499 | 121.24807 | 33095 ft | 490 kts | 59° |
| 2026-04-26 06:58 | 43.26436 | 121.33256 | 33087 ft | 490 kts | 59° |
| 2026-04-26 06:58 | 43.29368 | 121.41691 | 33108 ft | 489 kts | 59° |
| 2026-04-26 06:59 | 43.32281 | 121.50131 | 33095 ft | 489 kts | 60° |
| 2026-04-26 06:59 | 43.35191 | 121.58574 | 33088 ft | 488 kts | 60° |
| 2026-04-26 07:00 | 43.38096 | 121.67009 | 33084 ft | 488 kts | 60° |
| 2026-04-26 07:00 | 43.40995 | 121.75454 | 33109 ft | 488 kts | 60° |
| 2026-04-26 07:01 | 43.43878 | 121.83907 | 33100 ft | 488 kts | 60° |
| 2026-04-26 07:01 | 43.46752 | 121.92357 | 33093 ft | 487 kts | 60° |
| 2026-04-26 07:02 | 43.49626 | 122.00808 | 33090 ft | 487 kts | 60° |
| 2026-04-26 07:02 | 43.52477 | 122.09217 | 33103 ft | 487 kts | 60° |
| 2026-04-26 07:03 | 43.55344 | 122.17689 | 33097 ft | 486 kts | 58° |
| 2026-04-26 07:03 | 43.59005 | 122.25410 | 33082 ft | 480 kts | 49° |
| 2026-04-26 07:04 | 43.62917 | 122.32866 | 33095 ft | 480 kts | 49° |
| 2026-04-26 07:04 | 43.66818 | 122.40355 | 33089 ft | 480 kts | 49° |
| 2026-04-26 07:05 | 43.70713 | 122.47858 | 33082 ft | 480 kts | 50° |
| 2026-04-26 07:05 | 43.74608 | 122.55378 | 33078 ft | 480 kts | 50° |
| 2026-04-26 07:06 | 43.78498 | 122.62897 | 33099 ft | 480 kts | 50° |
| 2026-04-26 07:06 | 43.82378 | 122.70422 | 33089 ft | 480 kts | 50° |
| 2026-04-26 07:07 | 43.86251 | 122.77950 | 33085 ft | 480 kts | 50° |
| 2026-04-26 07:07 | 43.90124 | 122.85492 | 33089 ft | 480 kts | 50° |
| 2026-04-26 07:08 | 43.93992 | 122.93049 | 33077 ft | 480 kts | 50° |
| 2026-04-26 07:08 | 43.97907 | 123.00556 | 33083 ft | 479 kts | 49° |
| 2026-04-26 07:09 | 44.01873 | 123.07992 | 33082 ft | 479 kts | 49° |
| 2026-04-26 07:09 | 44.05842 | 123.15435 | 33091 ft | 479 kts | 50° |
| 2026-04-26 07:11 | 44.15660 | 123.34109 | 33081 ft | 479 kts | 50° |
| 2026-04-26 07:11 | 44.19589 | 123.41615 | 33072 ft | 479 kts | 50° |
| 2026-04-26 07:12 | 44.23513 | 123.49132 | 33078 ft | 479 kts | 50° |
| 2026-04-26 07:12 | 44.27429 | 123.56655 | 33075 ft | 479 kts | 50° |
| 2026-04-26 07:13 | 44.30678 | 123.62926 | 33085 ft | 479 kts | 50° |
| 2026-04-26 07:13 | 44.34578 | 123.70472 | 33076 ft | 479 kts | 50° |
| 2026-04-26 07:14 | 44.38477 | 123.78026 | 33070 ft | 479 kts | 50° |
| 2026-04-26 07:14 | 44.42377 | 123.85588 | 33067 ft | 479 kts | 50° |
| 2026-04-26 07:15 | 44.46268 | 123.93152 | 33078 ft | 479 kts | 50° |
| 2026-04-26 07:15 | 44.50194 | 124.00691 | 33070 ft | 479 kts | 50° |
| 2026-04-26 07:16 | 44.54264 | 124.08057 | 33072 ft | 475 kts | 41° |
| 2026-04-26 07:16 | 44.59362 | 124.13724 | 33081 ft | 463 kts | 24° |
| 2026-04-26 07:17 | 44.65160 | 124.17509 | 32954 ft | 460 kts | 18° |
| 2026-04-26 07:17 | 44.68066 | 124.19418 | 32674 ft | 463 kts | 24° |
| 2026-04-26 07:17 | 44.70770 | 124.21935 | 32405 ft | 470 kts | 34° |
| 2026-04-26 07:17 | 44.73170 | 124.25094 | 32140 ft | 476 kts | 44° |
| 2026-04-26 07:18 | 44.75223 | 124.28779 | 31882 ft | 480 kts | 50° |
| 2026-04-26 07:18 | 44.77171 | 124.32528 | 31651 ft | 481 kts | 50° |
| 2026-04-26 07:18 | 44.79154 | 124.36336 | 31394 ft | 482 kts | 50° |
| 2026-04-26 07:18 | 44.81138 | 124.40138 | 31140 ft | 482 kts | 50° |
| 2026-04-26 07:19 | 44.83122 | 124.43951 | 30892 ft | 483 kts | 50° |
| 2026-04-26 07:19 | 44.85108 | 124.47776 | 30638 ft | 483 kts | 50° |
| 2026-04-26 07:19 | 44.87090 | 124.51597 | 30393 ft | 484 kts | 50° |
| 2026-04-26 07:19 | 44.89073 | 124.55430 | 30148 ft | 484 kts | 50° |
| 2026-04-26 07:20 | 44.91056 | 124.59269 | 29905 ft | 484 kts | 50° |
| 2026-04-26 07:20 | 44.93039 | 124.63117 | 29604 ft | 485 kts | 50° |
| 2026-04-26 07:20 | 44.95023 | 124.66968 | 29324 ft | 485 kts | 50° |
| 2026-04-26 07:20 | 44.97002 | 124.70816 | 29007 ft | 482 kts | 50° |
| 2026-04-26 07:21 | 44.98959 | 124.74629 | 28309 ft | 478 kts | 50° |
| 2026-04-26 07:21 | 45.00898 | 124.78409 | 27653 ft | 473 kts | 49° |
| 2026-04-26 07:21 | 45.02819 | 124.82150 | 27013 ft | 468 kts | 49° |
| 2026-04-26 07:21 | 45.04721 | 124.85859 | 26377 ft | 463 kts | 49° |
| 2026-04-26 07:22 | 45.06601 | 124.89539 | 25747 ft | 459 kts | 49° |
| 2026-04-26 07:22 | 45.08458 | 124.93179 | 25140 ft | 454 kts | 49° |
| 2026-04-26 07:22 | 45.10290 | 124.96773 | 24721 ft | 446 kts | 49° |
| 2026-04-26 07:22 | 45.12118 | 125.00354 | 23872 ft | 449 kts | 49° |
| 2026-04-26 07:23 | 45.13939 | 125.03927 | 23234 ft | 445 kts | 49° |
| 2026-04-26 07:23 | 45.15736 | 125.07460 | 22610 ft | 439 kts | 49° |
| 2026-04-26 07:23 | 45.17487 | 125.10909 | 22082 ft | 433 kts | 49° |
| 2026-04-26 07:23 | 45.19231 | 125.14348 | 21485 ft | 427 kts | 50° |
| 2026-04-26 07:24 | 45.20975 | 125.17790 | 20942 ft | 421 kts | 50° |
| 2026-04-26 07:24 | 45.22651 | 125.21106 | 20423 ft | 416 kts | 50° |
| 2026-04-26 07:24 | 45.24329 | 125.24429 | 19927 ft | 411 kts | 50° |
| 2026-04-26 07:24 | 45.25986 | 125.27717 | 19430 ft | 408 kts | 51° |
| 2026-04-26 07:25 | 45.27629 | 125.30976 | 18932 ft | 404 kts | 51° |
| 2026-04-26 07:25 | 45.29261 | 125.34217 | 18427 ft | 402 kts | 51° |
| 2026-04-26 07:25 | 45.30855 | 125.37391 | 17886 ft | 400 kts | 51° |
| 2026-04-26 07:25 | 45.32448 | 125.40573 | 17628 ft | 389 kts | 52° |
| 2026-04-26 07:26 | 45.34009 | 125.43687 | 17642 ft | 385 kts | 51° |
| 2026-04-26 07:26 | 45.35566 | 125.46787 | 17642 ft | 385 kts | 51° |
| 2026-04-26 07:26 | 45.37104 | 125.49849 | 17642 ft | 385 kts | 51° |
| 2026-04-26 07:26 | 45.38660 | 125.52950 | 17644 ft | 385 kts | 52° |
| 2026-04-26 07:27 | 45.40220 | 125.56065 | 17637 ft | 387 kts | 51° |
| 2026-04-26 07:27 | 45.41786 | 125.59196 | 17637 ft | 388 kts | 51° |
| 2026-04-26 07:27 | 45.43342 | 125.62336 | 17637 ft | 388 kts | 52° |
| 2026-04-26 07:27 | 45.44857 | 125.65521 | 17638 ft | 388 kts | 53° |
| 2026-04-26 07:28 | 45.46339 | 125.68730 | 17632 ft | 388 kts | 54° |
| 2026-04-26 07:28 | 45.47808 | 125.71957 | 17634 ft | 387 kts | 54° |
| 2026-04-26 07:28 | 45.49272 | 125.75178 | 17634 ft | 387 kts | 54° |
| 2026-04-26 07:28 | 45.50737 | 125.78391 | 17631 ft | 384 kts | 54° |
| 2026-04-26 07:29 | 45.52165 | 125.81510 | 17622 ft | 367 kts | 54° |
| 2026-04-26 07:29 | 45.53419 | 125.84243 | 17626 ft | 351 kts | 54° |
| 2026-04-26 07:30 | 45.53689 | 125.84828 | 17627 ft | 348 kts | 53° |
| 2026-04-26 07:30 | 45.54944 | 125.87548 | 17627 ft | 333 kts | 53° |
| 2026-04-26 07:31 | 45.56187 | 125.90240 | 17403 ft | 331 kts | 53° |
| 2026-04-26 07:31 | 45.57453 | 125.92987 | 16914 ft | 332 kts | 53° |
| 2026-04-26 07:31 | 45.58623 | 125.95837 | 16424 ft | 340 kts | 65° |
| 2026-04-26 07:31 | 45.59149 | 125.99308 | 15955 ft | 374 kts | 88° |
| 2026-04-26 07:32 | 45.58656 | 126.02986 | 15485 ft | 382 kts | 113° |
| 2026-04-26 07:32 | 45.57150 | 126.06086 | 15022 ft | 382 kts | 138° |
| 2026-04-26 07:32 | 45.54922 | 126.08046 | 14564 ft | 375 kts | 162° |
| 2026-04-26 07:32 | 45.52375 | 126.08586 | 14123 ft | 368 kts | 186° |
| 2026-04-26 07:33 | 45.49932 | 126.07718 | 13674 ft | 360 kts | 208° |
| 2026-04-26 07:33 | 45.47953 | 126.05655 | 13171 ft | 350 kts | 231° |
| 2026-04-26 07:33 | 45.46691 | 126.02757 | 12690 ft | 342 kts | 251° |
| 2026-04-26 07:33 | 45.45888 | 125.99576 | 12208 ft | 341 kts | 252° |
| 2026-04-26 07:34 | 45.45114 | 125.96474 | 11746 ft | 338 kts | 253° |
| 2026-04-26 07:36 | 45.44409 | 125.93688 | 11315 ft | 337 kts | 252° |
| 2026-04-26 07:37 | 45.43614 | 125.90554 | 10857 ft | 335 kts | 252° |
| 2026-04-26 07:37 | 45.42836 | 125.87489 | 10408 ft | 333 kts | 252° |
| 2026-04-26 07:37 | 45.42054 | 125.84400 | 9948 ft | 331 kts | 252° |
| 2026-04-26 07:37 | 45.41276 | 125.81322 | 9480 ft | 328 kts | 252° |
| 2026-04-26 07:38 | 45.40505 | 125.78290 | 9066 ft | 322 kts | 253° |
| 2026-04-26 07:38 | 45.39757 | 125.75367 | 9007 ft | 306 kts | 253° |
| 2026-04-26 07:38 | 45.39070 | 125.72596 | 9019 ft | 288 kts | 258° |
| 2026-04-26 07:38 | 45.38891 | 125.69870 | 9019 ft | 268 kts | 278° |
| 2026-04-26 07:39 | 45.39350 | 125.67395 | 9026 ft | 253 kts | 296° |
| 2026-04-26 07:39 | 45.40331 | 125.65339 | 9023 ft | 252 kts | 314° |
| 2026-04-26 07:39 | 45.41736 | 125.63855 | 9027 ft | 255 kts | 333° |
| 2026-04-26 07:39 | 45.43428 | 125.63118 | 9021 ft | 257 kts | 351° |
| 2026-04-26 07:40 | 45.45217 | 125.63235 | 9022 ft | 261 kts | 9° |
| 2026-04-26 07:40 | 45.46905 | 125.64228 | 9028 ft | 266 kts | 30° |
| 2026-04-26 07:40 | 45.48259 | 125.66004 | 8963 ft | 271 kts | 50° |
| 2026-04-26 07:40 | 45.49218 | 125.68341 | 8801 ft | 274 kts | 58° |
| 2026-04-26 07:41 | 45.50121 | 125.70731 | 8647 ft | 274 kts | 58° |
| 2026-04-26 07:41 | 45.51029 | 125.73118 | 8485 ft | 273 kts | 59° |
| 2026-04-26 07:41 | 45.51933 | 125.75493 | 8323 ft | 272 kts | 58° |
| 2026-04-26 07:41 | 45.52837 | 125.77863 | 8167 ft | 272 kts | 58° |
| 2026-04-26 07:42 | 45.53738 | 125.80234 | 8018 ft | 271 kts | 58° |
| 2026-04-26 07:42 | 45.54635 | 125.82594 | 7904 ft | 270 kts | 57° |
| 2026-04-26 07:42 | 45.55532 | 125.84956 | 7918 ft | 271 kts | 59° |
| 2026-04-26 07:42 | 45.56430 | 125.87317 | 7918 ft | 271 kts | 58° |
| 2026-04-26 07:43 | 45.57327 | 125.89678 | 7912 ft | 270 kts | 58° |
| 2026-04-26 07:43 | 45.58225 | 125.92041 | 7913 ft | 271 kts | 58° |
| 2026-04-26 07:43 | 45.59124 | 125.94407 | 7911 ft | 271 kts | 58° |
| 2026-04-26 07:43 | 45.60018 | 125.96773 | 7909 ft | 271 kts | 59° |
| 2026-04-26 07:44 | 45.60909 | 125.99140 | 7911 ft | 270 kts | 58° |
| 2026-04-26 07:44 | 45.61799 | 126.01508 | 7907 ft | 270 kts | 58° |
| 2026-04-26 07:44 | 45.62693 | 126.03887 | 7685 ft | 273 kts | 58° |
| 2026-04-26 07:44 | 45.63660 | 126.06278 | 6855 ft | 282 kts | 50° |
| 2026-04-26 07:45 | 45.65037 | 126.08277 | 5975 ft | 283 kts | 36° |
| 2026-04-26 07:45 | 45.66581 | 126.10059 | 5098 ft | 288 kts | 36° |
| 2026-04-26 07:45 | 45.68098 | 126.11828 | 4792 ft | 272 kts | 36° |
| 2026-04-26 07:45 | 45.69518 | 126.13498 | 4535 ft | 257 kts | 35° |
| 2026-04-26 07:46 | 45.70879 | 126.15097 | 4266 ft | 251 kts | 35° |
| 2026-04-26 07:46 | 45.72228 | 126.16679 | 4006 ft | 250 kts | 35° |
| 2026-04-26 07:46 | 45.73571 | 126.18253 | 3748 ft | 249 kts | 34° |
| 2026-04-26 07:46 | 45.74915 | 126.19829 | 3499 ft | 249 kts | 36° |
| 2026-04-26 07:47 | 45.76242 | 126.21388 | 3306 ft | 244 kts | 35° |
| 2026-04-26 07:47 | 45.77541 | 126.22915 | 3121 ft | 238 kts | 35° |
| 2026-04-26 07:47 | 45.78803 | 126.24399 | 2938 ft | 231 kts | 35° |
| 2026-04-26 07:47 | 45.80015 | 126.25822 | 2766 ft | 224 kts | 36° |
| 2026-04-26 07:48 | 45.81189 | 126.27203 | 2564 ft | 211 kts | 36° |
| 2026-04-26 07:48 | 45.82224 | 126.28621 | 2380 ft | 205 kts | 54° |
| 2026-04-26 07:48 | 45.82593 | 126.30567 | 2198 ft | 205 kts | 94° |
| 2026-04-26 07:48 | 45.82079 | 126.32440 | 2116 ft | 203 kts | 130° |
| 2026-04-26 07:49 | 45.81151 | 126.33969 | 2113 ft | 202 kts | 130° |
| 2026-04-26 07:49 | 45.80277 | 126.35479 | 2156 ft | 194 kts | 129° |
| 2026-04-26 07:49 | 45.79418 | 126.36985 | 2117 ft | 195 kts | 128° |
| 2026-04-26 07:50 | 45.77356 | 126.39325 | 2098 ft | 191 kts | 164° |
| 2026-04-26 07:50 | 45.76064 | 126.39629 | 2095 ft | 188 kts | 185° |
| 2026-04-26 07:50 | 45.74800 | 126.39297 | 2104 ft | 182 kts | 206° |
| 2026-04-26 07:50 | 45.73720 | 126.38409 | 2106 ft | 177 kts | 225° |
| 2026-04-26 07:51 | 45.72767 | 126.37284 | 2107 ft | 178 kts | 225° |
| 2026-04-26 07:51 | 45.71833 | 126.36183 | 2103 ft | 171 kts | 225° |
| 2026-04-26 07:51 | 45.70926 | 126.35116 | 2099 ft | 164 kts | 225° |
| 2026-04-26 07:51 | 45.70078 | 126.34119 | 2067 ft | 153 kts | 226° |
| 2026-04-26 07:52 | 45.69270 | 126.33167 | 1925 ft | 149 kts | 226° |
| 2026-04-26 07:52 | 45.68477 | 126.32233 | 1747 ft | 147 kts | 226° |
| 2026-04-26 07:52 | 45.67690 | 126.31306 | 1551 ft | 146 kts | 225° |
| 2026-04-26 07:52 | 45.66906 | 126.30384 | 1357 ft | 146 kts | 225° |
| 2026-04-26 07:53 | 45.66135 | 126.29470 | 1160 ft | 145 kts | 226° |
| 2026-04-26 07:53 | 45.65343 | 126.28543 | 931 ft | 146 kts | 222° |
| 2026-04-26 07:53 | 45.64580 | 126.27650 | 763 ft | 142 kts | 221° |
| 2026-04-26 07:53 | 45.63820 | 126.26760 | 590 ft | 140 kts | 223° |
| 2026-04-26 07:54 | 45.63067 | 126.25884 | 459 ft | 133 kts | 226° |
| 2026-04-26 07:54 | 45.62332 | 126.25135 | 810 ft | 131 kts | 219° |
| 2026-04-26 07:54 | 45.61611 | 126.24294 | 1432 ft | 138 kts | 227° |
| 2026-04-26 07:54 | 45.60833 | 126.23431 | 1871 ft | 148 kts | 226° |
| 2026-04-26 07:55 | 45.60072 | 126.22352 | 1964 ft | 158 kts | 249° |
| 2026-04-26 07:55 | 45.59704 | 126.20842 | 2103 ft | 170 kts | 259° |
| 2026-04-26 07:55 | 45.59383 | 126.19088 | 2308 ft | 195 kts | 259° |
| 2026-04-26 07:55 | 45.59006 | 126.17137 | 2806 ft | 209 kts | 258° |
| 2026-04-26 07:56 | 45.58584 | 126.15123 | 2981 ft | 211 kts | 256° |
| 2026-04-26 07:56 | 45.58134 | 126.13139 | 3004 ft | 209 kts | 256° |
| 2026-04-26 07:56 | 45.57980 | 126.11135 | 3000 ft | 202 kts | 289° |
| 2026-04-26 07:56 | 45.58808 | 126.09585 | 3010 ft | 202 kts | 332° |
| 2026-04-26 07:57 | 45.60191 | 126.09335 | 3015 ft | 208 kts | 8° |
| 2026-04-26 07:57 | 45.61593 | 126.09938 | 3003 ft | 212 kts | 18° |
| 2026-04-26 07:57 | 45.62966 | 126.10693 | 2940 ft | 210 kts | 17° |
| 2026-04-26 07:57 | 45.63872 | 126.11176 | 2945 ft | 210 kts | 15° |
| 2026-04-26 07:58 | 45.65247 | 126.11850 | 2943 ft | 209 kts | 14° |
| 2026-04-26 07:58 | 45.66957 | 126.13156 | 2917 ft | 215 kts | 31° |
| 2026-04-26 07:58 | 45.68152 | 126.14368 | 2830 ft | 206 kts | 30° |
| 2026-04-26 07:58 | 45.69317 | 126.15546 | 2755 ft | 205 kts | 31° |
| 2026-04-26 07:59 | 45.70480 | 126.16719 | 2681 ft | 204 kts | 31° |
| 2026-04-26 07:59 | 45.71641 | 126.17891 | 2600 ft | 204 kts | 31° |
| 2026-04-26 07:59 | 45.72800 | 126.19062 | 2526 ft | 204 kts | 31° |
| 2026-04-26 07:59 | 45.73962 | 126.20235 | 2456 ft | 204 kts | 31° |
| 2026-04-26 08:00 | 45.74729 | 126.21009 | 2404 ft | 202 kts | 31° |
| 2026-04-26 08:00 | 45.76256 | 126.22558 | 2296 ft | 200 kts | 30° |
| 2026-04-26 08:00 | 45.77011 | 126.23323 | 2240 ft | 202 kts | 31° |
| 2026-04-26 08:00 | 45.78159 | 126.24486 | 2149 ft | 202 kts | 31° |
| 2026-04-26 08:01 | 45.79304 | 126.25649 | 2115 ft | 201 kts | 31° |
| 2026-04-26 08:01 | 45.80451 | 126.26817 | 2107 ft | 203 kts | 32° |
| 2026-04-26 08:01 | 45.81412 | 126.27804 | 2108 ft | 203 kts | 33° |
| 2026-04-26 08:07 | 45.82143 | 126.29029 | 2153 ft | 211 kts | 59° |
| 2026-04-26 08:07 | 45.82402 | 126.31037 | 2107 ft | 203 kts | 97° |
| 2026-04-26 08:08 | 45.81862 | 126.32825 | 2147 ft | 195 kts | 129° |
| 2026-04-26 08:08 | 45.80996 | 126.34318 | 2132 ft | 193 kts | 130° |
| 2026-04-26 08:08 | 45.80143 | 126.35795 | 2108 ft | 192 kts | 129° |
| 2026-04-26 08:08 | 45.79292 | 126.37271 | 2103 ft | 191 kts | 130° |
| 2026-04-26 08:09 | 45.78371 | 126.38636 | 2095 ft | 192 kts | 145° |
| 2026-04-26 08:09 | 45.77199 | 126.39483 | 2099 ft | 191 kts | 166° |
| 2026-04-26 08:09 | 45.75881 | 126.39691 | 2105 ft | 187 kts | 188° |
| 2026-04-26 08:09 | 45.74647 | 126.39252 | 2107 ft | 181 kts | 209° |
| 2026-04-26 08:10 | 45.73622 | 126.38292 | 2111 ft | 177 kts | 224° |
| 2026-04-26 08:10 | 45.72696 | 126.37200 | 2109 ft | 170 kts | 224° |
| 2026-04-26 08:10 | 45.71791 | 126.36134 | 2109 ft | 167 kts | 224° |
| 2026-04-26 08:10 | 45.70926 | 126.35115 | 2098 ft | 155 kts | 224° |
| 2026-04-26 08:11 | 45.70106 | 126.34150 | 2066 ft | 151 kts | 225° |
| 2026-04-26 08:11 | 45.69307 | 126.33209 | 1943 ft | 147 kts | 225° |
| 2026-04-26 08:11 | 45.68520 | 126.32283 | 1753 ft | 146 kts | 226° |
| 2026-04-26 08:11 | 45.67738 | 126.31363 | 1562 ft | 145 kts | 224° |
| 2026-04-26 08:12 | 45.66961 | 126.30448 | 1371 ft | 144 kts | 225° |
| 2026-04-26 08:12 | 45.66184 | 126.29533 | 1160 ft | 144 kts | 228° |
| 2026-04-26 08:12 | 45.65413 | 126.28628 | 950 ft | 144 kts | 225° |
| 2026-04-26 08:12 | 45.64632 | 126.27711 | 754 ft | 146 kts | 223° |
| 2026-04-26 08:13 | 45.63858 | 126.26796 | 594 ft | 144 kts | 223° |
| 2026-04-26 08:13 | 45.63092 | 126.25905 | 452 ft | 134 kts | 223° |
| 2026-04-26 08:13 | 45.62495 | 126.25196 | 454 ft | 91 kts | 219° |
| 2026-04-26 08:13 | 45.62098 | 126.24736 | 458 ft | 52 kts | 219° |
| 2026-04-26 08:14 | 45.61872 | 126.24472 | 459 ft | 29 kts | 218° |
| 2026-04-26 08:14 | 45.61824 | 126.24415 | 459 ft | 21 kts | 220° |
| 2026-04-26 08:14 | 45.61752 | 126.24285 | 459 ft | 12 kts | 249° |
| 2026-04-26 08:14 | 45.61741 | 126.24190 | 461 ft | 8 kts | 264° |
| 2026-04-26 08:15 | 45.61749 | 126.24120 | 460 ft | 6 kts | 300° |
| 2026-04-26 08:15 | 45.61782 | 126.24089 | 462 ft | 5 kts | 344° |
| 2026-04-26 08:15 | 45.61817 | 126.24095 | 460 ft | 5 kts | 22° |
| 2026-04-26 08:15 | 45.61846 | 126.24125 | 460 ft | 5 kts | 39° |
| 2026-04-26 08:16 | 45.61874 | 126.24158 | 460 ft | 5 kts | 39° |
| 2026-04-26 08:16 | 45.61902 | 126.24191 | 461 ft | 5 kts | 39° |
| 2026-04-26 08:16 | 45.61930 | 126.24224 | 460 ft | 5 kts | 39° |
| 2026-04-26 08:16 | 45.61954 | 126.24252 | 459 ft | 4 kts | 39° |
| 2026-04-26 08:17 | 45.61970 | 126.24270 | 459 ft | 2 kts | 39° |
| 2026-04-26 08:17 | 45.61980 | 126.24282 | 460 ft | 2 kts | 39° |
| 2026-04-26 08:17 | 45.61988 | 126.24292 | 460 ft | 0 kts | 39° |
| 2026-04-26 08:17 | 45.61989 | 126.24293 | 460 ft | 0 kts | 39° |
| 2026-04-26 08:18 | 45.61990 | 126.24293 | 460 ft | 0 kts | 39° |
| 2026-04-26 08:22 | 45.61990 | 126.24294 | 460 ft | 0 kts | 39° |
| 2026-04-26 08:22 | 45.61993 | 126.24297 | 460 ft | 1 kts | 39° |
| 2026-04-26 08:22 | 45.62005 | 126.24311 | 459 ft | 4 kts | 39° |
| 2026-04-26 08:22 | 45.62045 | 126.24359 | 460 ft | 10 kts | 40° |
| 2026-04-26 08:23 | 45.62105 | 126.24429 | 458 ft | 13 kts | 39° |
| 2026-04-26 08:23 | 45.62181 | 126.24517 | 459 ft | 15 kts | 39° |
| 2026-04-26 08:23 | 45.62264 | 126.24615 | 457 ft | 16 kts | 39° |
| 2026-04-26 08:23 | 45.62344 | 126.24709 | 457 ft | 13 kts | 39° |
| 2026-04-26 08:24 | 45.62424 | 126.24802 | 457 ft | 16 kts | 39° |
| 2026-04-26 08:24 | 45.62501 | 126.24892 | 455 ft | 9 kts | 39° |
| 2026-04-26 08:24 | 45.62541 | 126.24940 | 454 ft | 8 kts | 39° |
| 2026-04-26 08:24 | 45.62593 | 126.25000 | 455 ft | 11 kts | 39° |
| 2026-04-26 08:25 | 45.62663 | 126.25079 | 455 ft | 14 kts | 38° |
| 2026-04-26 08:25 | 45.62748 | 126.25177 | 453 ft | 17 kts | 39° |
| 2026-04-26 08:25 | 45.62843 | 126.25293 | 452 ft | 17 kts | 39° |
| 2026-04-26 08:25 | 45.62906 | 126.25367 | 454 ft | 11 kts | 40° |
| 2026-04-26 08:26 | 45.62972 | 126.25446 | 453 ft | 14 kts | 39° |
| 2026-04-26 08:26 | 45.63049 | 126.25534 | 453 ft | 14 kts | 39° |
| 2026-04-26 08:26 | 45.63128 | 126.25627 | 452 ft | 15 kts | 39° |
| 2026-04-26 08:26 | 45.63212 | 126.25726 | 450 ft | 16 kts | 39° |
| 2026-04-26 08:27 | 45.63302 | 126.25832 | 451 ft | 17 kts | 39° |
| 2026-04-26 08:27 | 45.63398 | 126.25943 | 450 ft | 18 kts | 39° |
| 2026-04-26 08:27 | 45.63497 | 126.26060 | 449 ft | 19 kts | 39° |
| 2026-04-26 08:27 | 45.63574 | 126.26152 | 449 ft | 10 kts | 45° |
| 2026-04-26 08:28 | 45.63589 | 126.26226 | 449 ft | 9 kts | 97° |
| 2026-04-26 08:28 | 45.63542 | 126.26287 | 449 ft | 11 kts | 166° |
| 2026-04-26 08:28 | 45.63462 | 126.26296 | 449 ft | 12 kts | 183° |
| 2026-04-26 08:28 | 45.63401 | 126.26260 | 450 ft | 0 kts | 218° |
| 2026-04-26 08:29 | 45.63272 | 126.26110 | 449 ft | 61 kts | 220° |
| 2026-04-26 08:29 | 45.62772 | 126.25523 | 454 ft | 122 kts | 219° |
| 2026-04-26 08:29 | 45.61986 | 126.24597 | 501 ft | 165 kts | 220° |
| 2026-04-26 08:30 | 45.61081 | 126.23519 | 935 ft | 171 kts | 223° |
| 2026-04-26 08:30 | 45.60183 | 126.22370 | 1419 ft | 176 kts | 227° |
| 2026-04-26 08:30 | 45.59257 | 126.21228 | 1975 ft | 175 kts | 226° |
| 2026-04-26 08:30 | 45.58311 | 126.20072 | 2324 ft | 188 kts | 226° |
| 2026-04-26 08:31 | 45.57271 | 126.18772 | 2461 ft | 208 kts | 230° |
| 2026-04-26 08:31 | 45.56553 | 126.16959 | 2707 ft | 218 kts | 263° |
| 2026-04-26 08:31 | 45.56637 | 126.14813 | 2983 ft | 218 kts | 294° |
| 2026-04-26 08:31 | 45.57543 | 126.13158 | 3010 ft | 213 kts | 326° |
| 2026-04-26 08:32 | 45.58941 | 126.12504 | 3009 ft | 217 kts | 358° |
| 2026-04-26 08:32 | 45.60461 | 126.12656 | 3010 ft | 219 kts | 2° |
| 2026-04-26 08:32 | 45.61954 | 126.12846 | 3002 ft | 208 kts | 2° |
| 2026-04-26 08:32 | 45.63355 | 126.13023 | 3008 ft | 199 kts | 1° |
| 2026-04-26 08:33 | 45.64727 | 126.13192 | 3009 ft | 197 kts | 1° |
| 2026-04-26 08:33 | 45.66097 | 126.13358 | 3010 ft | 198 kts | 1° |
| 2026-04-26 08:33 | 45.67465 | 126.13522 | 3010 ft | 198 kts | 1° |
| 2026-04-26 08:33 | 45.68830 | 126.13764 | 2996 ft | 199 kts | 10° |
| 2026-04-26 08:34 | 45.70140 | 126.14449 | 3010 ft | 203 kts | 24° |
| 2026-04-26 08:34 | 45.71306 | 126.15596 | 3020 ft | 205 kts | 35° |
| 2026-04-26 08:34 | 45.72407 | 126.16898 | 3016 ft | 205 kts | 35° |
| 2026-04-26 08:34 | 45.73513 | 126.18193 | 3018 ft | 206 kts | 34° |
| 2026-04-26 08:35 | 45.74620 | 126.19488 | 3012 ft | 206 kts | 35° |
| 2026-04-26 08:35 | 45.75727 | 126.20785 | 2995 ft | 206 kts | 36° |
| 2026-04-26 08:35 | 45.76821 | 126.22070 | 2863 ft | 200 kts | 35° |
| 2026-04-26 08:35 | 45.77877 | 126.23312 | 2732 ft | 193 kts | 35° |
| 2026-04-26 08:36 | 45.78898 | 126.24515 | 2604 ft | 188 kts | 34° |
| 2026-04-26 08:36 | 45.79897 | 126.25690 | 2473 ft | 184 kts | 34° |
| 2026-04-26 08:36 | 45.80884 | 126.26856 | 2354 ft | 184 kts | 37° |
| 2026-04-26 08:36 | 45.81679 | 126.28319 | 2226 ft | 190 kts | 59° |
| 2026-04-26 08:37 | 45.82054 | 126.30154 | 2161 ft | 195 kts | 82° |
| 2026-04-26 08:37 | 45.81925 | 126.32031 | 2110 ft | 190 kts | 105° |
| 2026-04-26 08:37 | 45.81334 | 126.33715 | 2103 ft | 190 kts | 127° |
| 2026-04-26 08:37 | 45.80486 | 126.35181 | 2104 ft | 192 kts | 128° |
| 2026-04-26 08:38 | 45.79634 | 126.36655 | 2112 ft | 191 kts | 130° |
| 2026-04-26 08:38 | 45.78774 | 126.38113 | 2111 ft | 193 kts | 135° |
| 2026-04-26 08:38 | 45.77688 | 126.39207 | 2114 ft | 191 kts | 157° |
| 2026-04-26 08:38 | 45.76421 | 126.39684 | 2113 ft | 187 kts | 179° |
| 2026-04-26 08:39 | 45.75140 | 126.39505 | 2113 ft | 184 kts | 201° |
| 2026-04-26 08:39 | 45.74005 | 126.38727 | 2111 ft | 179 kts | 221° |
| 2026-04-26 08:39 | 45.73044 | 126.37610 | 2116 ft | 178 kts | 225° |
| 2026-04-26 08:39 | 45.72090 | 126.36485 | 2114 ft | 177 kts | 224° |
| 2026-04-26 08:40 | 45.71139 | 126.35364 | 2113 ft | 176 kts | 225° |
| 2026-04-26 08:40 | 45.70239 | 126.34309 | 2067 ft | 159 kts | 226° |
| 2026-04-26 08:40 | 45.69419 | 126.33345 | 1959 ft | 149 kts | 226° |
| 2026-04-26 08:40 | 45.68634 | 126.32419 | 1780 ft | 145 kts | 226° |
| 2026-04-26 08:41 | 45.67863 | 126.31511 | 1588 ft | 143 kts | 226° |
| 2026-04-26 08:41 | 45.67097 | 126.30609 | 1398 ft | 142 kts | 225° |
| 2026-04-26 08:41 | 45.66331 | 126.29706 | 1196 ft | 144 kts | 225° |
| 2026-04-26 08:41 | 45.65562 | 126.28802 | 1031 ft | 142 kts | 224° |
| 2026-04-26 08:42 | 45.64812 | 126.27915 | 849 ft | 141 kts | 224° |
| 2026-04-26 08:42 | 45.64058 | 126.27030 | 627 ft | 141 kts | 222° |
| 2026-04-26 08:42 | 45.63295 | 126.26138 | 459 ft | 141 kts | 221° |
| 2026-04-26 08:42 | 45.62587 | 126.25297 | 506 ft | 140 kts | 223° |
| 2026-04-26 08:43 | 45.61790 | 126.24333 | 932 ft | 158 kts | 224° |
| 2026-04-26 08:43 | 45.60996 | 126.23279 | 1619 ft | 153 kts | 239° |
| 2026-04-26 08:43 | 45.60490 | 126.21888 | 2015 ft | 165 kts | 256° |
| 2026-04-26 08:43 | 45.60076 | 126.20225 | 2213 ft | 190 kts | 255° |
| 2026-04-26 08:44 | 45.59605 | 126.18369 | 2678 ft | 203 kts | 253° |
| 2026-04-26 08:44 | 45.59159 | 126.16642 | 2958 ft | 209 kts | 254° |
| 2026-04-26 08:44 | 45.59008 | 126.16060 | 2970 ft | 209 kts | 254° |
| 2026-04-26 08:45 | 45.58287 | 126.13483 | 3109 ft | 207 kts | 252° |
| 2026-04-26 08:45 | 45.57945 | 126.12192 | 3137 ft | 209 kts | 257° |
| 2026-04-26 08:45 | 45.58028 | 126.10238 | 3043 ft | 193 kts | 300° |
| 2026-04-26 08:45 | 45.59466 | 126.09080 | 3015 ft | 188 kts | 2° |
| 2026-04-26 08:46 | 45.60305 | 126.09397 | 3025 ft | 190 kts | 18° |
| 2026-04-26 08:46 | 45.61539 | 126.10056 | 3014 ft | 188 kts | 14° |
| 2026-04-26 08:46 | 45.62777 | 126.10648 | 3009 ft | 187 kts | 13° |
| 2026-04-26 08:46 | 45.64037 | 126.10834 | 3010 ft | 184 kts | 347° |
| 2026-04-26 08:47 | 45.65228 | 126.09998 | 3012 ft | 199 kts | 316° |
| 2026-04-26 08:47 | 45.65882 | 126.08259 | 2996 ft | 205 kts | 282° |
| 2026-04-26 08:47 | 45.65668 | 126.06243 | 3009 ft | 215 kts | 245° |
| 2026-04-26 08:47 | 45.64616 | 126.04685 | 3015 ft | 223 kts | 220° |
| 2026-04-26 08:48 | 45.63362 | 126.03384 | 3009 ft | 222 kts | 220° |
| 2026-04-26 08:48 | 45.62122 | 126.02112 | 3010 ft | 222 kts | 220° |
| 2026-04-26 08:48 | 45.60848 | 126.00809 | 3011 ft | 222 kts | 219° |
| 2026-04-26 08:48 | 45.59610 | 125.99538 | 3012 ft | 222 kts | 219° |
| 2026-04-26 08:49 | 45.58340 | 125.98230 | 3018 ft | 222 kts | 219° |
| 2026-04-26 08:49 | 45.57090 | 125.96940 | 3015 ft | 222 kts | 220° |
| 2026-04-26 08:49 | 45.55854 | 125.95662 | 3016 ft | 222 kts | 220° |
| 2026-04-26 08:49 | 45.54603 | 125.94367 | 3016 ft | 222 kts | 219° |
| 2026-04-26 08:50 | 45.53356 | 125.93076 | 3020 ft | 221 kts | 219° |
| 2026-04-26 08:50 | 45.52153 | 125.91838 | 3003 ft | 206 kts | 220° |
| 2026-04-26 08:50 | 45.50977 | 125.90807 | 3022 ft | 193 kts | 202° |
| 2026-04-26 08:50 | 45.49657 | 125.90592 | 3046 ft | 194 kts | 173° |
| 2026-04-26 08:51 | 45.47636 | 125.92873 | 3007 ft | 193 kts | 108° |
| 2026-04-26 08:51 | 45.47334 | 125.94712 | 2999 ft | 190 kts | 98° |
| 2026-04-26 08:51 | 45.47071 | 125.96556 | 3014 ft | 191 kts | 98° |
| 2026-04-26 08:52 | 45.46804 | 125.98409 | 3011 ft | 190 kts | 98° |
| 2026-04-26 08:52 | 45.46537 | 126.00255 | 3017 ft | 190 kts | 98° |
| 2026-04-26 08:52 | 45.46271 | 126.02100 | 3018 ft | 190 kts | 99° |
| 2026-04-26 08:52 | 45.46113 | 126.03959 | 3014 ft | 187 kts | 83° |
| 2026-04-26 08:53 | 45.46394 | 126.05699 | 3012 ft | 181 kts | 60° |
| 2026-04-26 08:53 | 45.47089 | 126.07181 | 3011 ft | 177 kts | 40° |
| 2026-04-26 08:53 | 45.48008 | 126.08289 | 3011 ft | 176 kts | 34° |
| 2026-04-26 08:53 | 45.48957 | 126.09391 | 3008 ft | 176 kts | 34° |
| 2026-04-26 08:54 | 45.49887 | 126.10475 | 2988 ft | 163 kts | 34° |
| 2026-04-26 08:54 | 45.50728 | 126.11458 | 2986 ft | 152 kts | 33° |
| 2026-04-26 08:54 | 45.51528 | 126.12389 | 2903 ft | 146 kts | 33° |
| 2026-04-26 08:54 | 45.52305 | 126.13293 | 2746 ft | 143 kts | 33° |
| 2026-04-26 08:55 | 45.53068 | 126.14183 | 2541 ft | 141 kts | 32° |
| 2026-04-26 08:55 | 45.53822 | 126.15060 | 2365 ft | 139 kts | 33° |
| 2026-04-26 08:55 | 45.54570 | 126.15933 | 2178 ft | 138 kts | 32° |
| 2026-04-26 08:55 | 45.55310 | 126.16796 | 1990 ft | 137 kts | 33° |
| 2026-04-26 08:56 | 45.56044 | 126.17653 | 1805 ft | 136 kts | 32° |
| 2026-04-26 08:56 | 45.56776 | 126.18509 | 1620 ft | 136 kts | 33° |
| 2026-04-26 08:56 | 45.57509 | 126.19365 | 1435 ft | 136 kts | 33° |
| 2026-04-26 08:56 | 45.58243 | 126.20223 | 1251 ft | 136 kts | 31° |
| 2026-04-26 08:57 | 45.58977 | 126.21078 | 1058 ft | 138 kts | 38° |
| 2026-04-26 08:57 | 45.59727 | 126.21950 | 873 ft | 139 kts | 38° |
| 2026-04-26 08:57 | 45.60467 | 126.22824 | 698 ft | 138 kts | 36° |
| 2026-04-26 08:57 | 45.61210 | 126.23691 | 517 ft | 138 kts | 38° |
| 2026-04-26 08:58 | 45.61917 | 126.24490 | 460 ft | 116 kts | 36° |
| 2026-04-26 08:58 | 45.62430 | 126.25080 | 453 ft | 81 kts | 41° |
| 2026-04-26 08:58 | 45.62806 | 126.25552 | 454 ft | 65 kts | 40° |
| 2026-04-26 08:58 | 45.63118 | 126.25917 | 449 ft | 37 kts | 41° |
| 2026-04-26 08:59 | 45.63245 | 126.26074 | 449 ft | 14 kts | 38° |
| 2026-04-26 08:59 | 45.63320 | 126.26078 | 449 ft | 12 kts | 335° |